Latest Weather Observations for Cummins Airport

IDS60801

Issued at 11:41 am CDT Thursday 21 November 2019 (issued every 10 minutes, with the page automatically refreshed every 10 minutes)

About weather observations | Map of weather stations | Latest weather observations for SA | Other Formats
Station Details ID: 018217 Name: CUMMINS AERO Lat: -34.25 Lon: 135.71 Height: 60.11 m
Data from the previous 72 hours. | See also: Recent months at Cummins Airport
Date/Time
CDT
Temp
°C
App
Temp
°C
Dew
Point
°C
Rel
Hum
%
Delta-T
°C
Wind Press
QNH
hPa
Press
MSL
hPa
Rain since
9am
mm
Dir  Spd
km/h
Gust
km/h
Spd
kts
Gust
kts
21/11:30am 21.1 15.2 7.3 41 7.1 WSW 28 44 15 24 1013.2 1013.0 0.0
21/11:20am 20.4 14.4 7.1 42 6.8 WSW 28 46 15 25 1013.1 1012.9 0.0
21/11:00am 19.8 13.8 8.5 48 5.9 WSW 30 41 16 22 1013.0 1012.8 0.0
21/10:30am 20.1 15.4 10.5 54 5.2 SW 26 37 14 20 1012.7 1012.5 0.0
21/10:00am 18.6 13.4 10.4 59 4.4 WSW 28 41 15 22 1012.0 1011.8 0.0
21/09:30am 18.4 13.9 11.5 64 3.8 SW 26 35 14 19 1011.9 1011.7 0.0
21/09:00am 17.6 13.4 12.3 71 2.9 SW 26 35 14 19 1011.6 1011.4 0.0
21/08:30am 16.8 14.3 14.1 84 1.5 WSW 20 28 11 15 1011.3 1011.1 0.0
21/08:00am 15.6 11.9 14.0 90 0.9 WSW 26 35 14 19 1010.6 1010.5 0.0
21/07:30am 16.1 11.5 13.4 84 1.5 WSW 30 43 16 23 1009.9 1009.8 0.0
21/07:00am 15.9 11.2 13.2 84 1.5 WSW 30 39 16 21 1009.6 1009.5 0.0
21/06:30am 15.8 11.5 13.1 84 1.5 SW 28 41 15 22 1008.3 1008.2 0.0
21/06:00am 15.8 11.8 13.1 84 1.5 WSW 26 37 14 20 1007.4 1007.3 0.0
21/05:30am 15.4 11.2 13.4 88 1.1 SW 28 41 15 22 1006.6 1006.5 0.0
21/05:00am 15.6 10.9 13.3 86 1.3 WSW 30 44 16 24 1005.4 1005.3 0.0
21/04:30am 15.5 11.6 13.2 86 1.3 SW 26 41 14 22 1005.1 1005.0 0.0
21/04:07am 15.4 10.7 14.3 93 0.6 WSW 32 50 17 27 1005.1 1005.0 0.0
21/04:00am 15.5 9.7 14.0 91 0.8 WSW 37 52 20 28 1004.8 1004.7 0.0
21/03:38am 15.7 9.0 14.7 94 0.6 W 43 61 23 33 1004.5 1004.4 0.0
21/03:30am 15.8 9.9 14.8 94 0.6 W 39 52 21 28 1004.2 1004.1 0.0
21/03:00am 16.4 11.3 14.9 91 0.9 WSW 35 50 19 27 1003.4 1003.3 0.0
21/02:30am 16.9 12.3 15.1 89 1.1 W 33 43 18 23 1002.8 1002.7 0.0
21/02:00am 17.2 12.7 15.0 87 1.3 WSW 32 41 17 22 1001.8 1001.7 0.0
21/01:30am 17.8 14.3 13.3 75 2.6 WSW 24 43 13 23 1001.2 1001.0 0.0
21/01:26am 17.5 15.1 12.8 74 2.6 SW 17 43 9 23 1001.3 1001.1 0.0
21/01:00am 18.0 15.7 12.9 72 2.9 S 17 20 9 11 1000.0 999.8 0.0
21/12:30am 19.0 15.2 12.5 66 3.7 SW 24 35 13 19 1000.6 1000.4 0.0
21/12:00am 20.7 16.1 11.1 54 5.3 SW 26 37 14 20 999.9 999.7 0.0
 
Date/Time
CDT
Temp
°C
App
Temp
°C
Dew
Point
°C
Rel
Hum
%
Delta-T
°C
Wind Press
QNH
hPa
Press
MSL
hPa
Rain since
9am
mm
Dir  Spd
km/h
Gust
km/h
Spd
kts
Gust
kts
20/11:30pm 22.0 18.7 9.5 45 6.8 SSW 17 22 9 12 998.7 998.5 0.0
20/11:00pm 23.6 19.7 8.8 39 7.9 SSW 19 28 10 15 998.2 998.0 0.0
20/10:30pm 27.9 23.1 5.5 24 11.7 WSW 20 28 11 15 998.1 997.9 0.0
20/10:00pm 31.3 26.0 -0.4 13 15.2 NW 17 24 9 13 997.6 997.4 0.0
20/09:30pm 33.5 27.5 -7.0 7 17.8 NNE 17 20 9 11 996.9 996.7 0.0
20/09:00pm 35.3 28.6 -7.7 6 19.0 N 20 24 11 13 996.9 996.7 0.0
20/08:30pm 37.1 30.6 -6.4 6 19.8 N 20 30 11 16 997.1 996.9 0.0
20/08:00pm 38.3 31.2 -7.9 5 20.6 N 22 32 12 17 997.1 996.9 0.0
20/07:30pm 40.2 32.5 -6.6 5 21.8 N 26 37 14 20 996.9 996.7 0.0
20/07:15pm 40.8 32.0 -6.2 5 22.0 N 32 50 17 27 996.8 996.6 0.0
20/07:00pm 41.4 32.4 -8.7 4 22.6 N 32 46 17 25 996.8 996.6 0.0
20/06:30pm 42.2 32.3 -8.1 4 23.2 N 37 56 20 30 996.7 996.5 0.0
20/06:11pm 42.4 32.9 -8.0 4 23.2 NNW 35 56 19 30 996.7 996.5 0.0
20/06:00pm 42.3 32.8 -8.0 4 23.3 NNW 35 48 19 26 996.8 996.6 0.0
20/05:30pm 42.9 32.3 -7.6 4 23.6 N 41 59 22 32 997.0 996.8 0.0
20/05:00pm 43.8 33.6 -7.0 4 23.9 NNW 39 67 21 36 997.2 997.0 0.0
20/04:30pm 43.8 32.8 -7.0 4 24.1 NNW 43 70 23 38 997.6 997.4 0.0
20/04:00pm 43.7 32.8 -4.2 5 23.5 NNW 44 76 24 41 997.9 997.7 0.0
20/03:30pm 43.9 32.3 -4.0 5 23.7 NNW 48 69 26 37 998.4 998.2 0.0
20/03:00pm 43.0 30.9 -4.7 5 23.2 N 50 72 27 39 999.1 998.9 0.0
20/02:30pm 42.7 29.5 -4.9 5 23.1 NNW 56 87 30 47 999.8 999.6 0.0
20/02:00pm 43.2 30.4 -4.5 5 23.2 N 54 72 29 39 1000.1 999.9 0.0
20/01:30pm 43.4 31.0 -4.4 5 23.4 N 52 78 28 42 1000.5 1000.3 0.0
20/01:01pm 43.6 32.6 -1.8 6 23.0 N 46 65 25 35 1001.1 1000.9 0.0
20/01:00pm 43.8 32.8 -1.7 6 23.1 N 46 63 25 34 1001.1 1000.9 0.0
20/12:30pm 42.7 31.7 -2.4 6 22.7 N 46 70 25 38 1001.6 1001.4 0.0
20/12:09pm 42.0 30.1 -2.9 6 22.2 N 50 72 27 39 1002.1 1002.0 0.0
20/12:00pm 41.9 30.0 -3.0 6 22.2 N 50 65 27 35 1002.3 1002.2 0.0
20/11:30am 41.3 30.1 -3.4 6 21.9 N 46 70 25 38 1002.9 1002.8 0.0
20/11:01am 41.0 30.6 -1.6 7 21.3 N 43 61 23 33 1003.2 1003.1 0.0
20/11:00am 41.0 30.4 -1.6 7 21.3 N 44 61 24 33 1003.3 1003.2 0.0
20/10:30am 39.7 29.2 -2.5 7 20.8 NNW 43 61 23 33 1003.7 1003.6 0.0
20/10:00am 38.0 27.4 -3.7 7 19.8 N 43 65 23 35 1004.1 1004.0 0.0
20/09:30am 36.4 27.4 -3.1 8 18.8 N 35 56 19 30 1004.5 1004.4 0.0
20/09:25am 36.2 28.1 -3.3 8 18.7 N 30 50 16 27 1004.6 1004.5 0.0
20/09:00am 33.6 26.0 -2.2 10 17.0 N 28 37 15 20 1004.8 1004.7 0.0
20/08:30am 31.8 23.4 -2.3 11 15.9 N 32 41 17 22 1004.9 1004.8 0.0
20/08:00am 30.0 23.3 -1.4 13 14.7 N 24 32 13 17 1004.9 1004.8 0.0
20/07:30am 27.4 21.5 -0.6 16 13.1 NNE 20 24 11 13 1004.8 1004.7 0.0
20/07:00am 25.1 19.9 -0.1 19 11.6 NNE 17 22 9 12 1004.7 1004.6 0.0
20/06:30am 24.5 19.3 0.1 20 11.3 NNE 17 26 9 14 1004.5 1004.4 0.0
20/06:00am 25.1 19.6 0.6 20 11.5 NNE 19 28 10 15 1004.4 1004.3 0.0
20/05:30am 23.1 18.9 1.5 24 10.1 NNE 13 17 7 9 1004.4 1004.3 0.0
20/05:00am 25.0 19.7 1.8 22 11.1 NE 19 22 10 12 1004.4 1004.3 0.0
20/04:30am 25.5 19.4 2.9 23 11.1 NNE 24 30 13 16 1004.5 1004.4 0.0
20/04:00am 24.9 19.9 4.6 27 10.2 NNE 20 26 11 14 1004.8 1004.7 0.0
20/03:30am 23.9 19.2 6.2 32 9.1 NNE 20 26 11 14 1004.9 1004.8 0.0
20/03:00am 23.8 19.2 6.6 33 8.9 NE 20 26 11 14 1005.1 1005.0 0.0
20/02:30am 24.0 19.7 7.2 34 8.8 NE 19 24 10 13 1005.6 1005.5 0.0
20/02:00am 23.5 19.7 7.6 36 8.4 NE 17 22 9 12 1006.0 1005.9 0.0
20/01:30am 23.5 19.4 8.0 37 8.2 NE 19 22 10 12 1006.7 1006.6 0.0
20/01:00am 22.8 19.0 8.9 41 7.4 NE 19 24 10 13 1007.2 1007.1 0.0
20/12:30am 22.1 18.2 9.3 44 6.9 NE 20 28 11 15 1007.6 1007.5 0.0
20/12:00am 21.8 18.8 9.3 45 6.7 NE 15 24 8 13 1008.0 1007.9 0.0
 
Date/Time
CDT
Temp
°C
App
Temp
°C
Dew
Point
°C
Rel
Hum
%
Delta-T
°C
Wind Press
QNH
hPa
Press
MSL
hPa
Rain since
9am
mm
Dir  Spd
km/h
Gust
km/h
Spd
kts
Gust
kts
19/11:30pm 20.5 16.7 9.7 50 5.8 NE 20 32 11 17 1008.5 1008.4 0.0
19/11:00pm 21.4 17.9 8.7 44 6.7 NE 17 26 9 14 1008.7 1008.6 0.0
19/10:30pm 21.9 17.9 9.1 44 6.9 ENE 20 28 11 15 1008.9 1008.8 0.0
19/10:00pm 21.1 18.3 10.0 49 6.0 NE 15 26 8 14 1009.3 1009.2 0.0
19/09:30pm 21.4 18.9 9.6 47 6.4 ESE 13 22 7 12 1009.8 1009.7 0.0
19/09:00pm 21.9 18.9 9.4 45 6.7 ENE 15 20 8 11 1009.4 1009.3 0.0
19/08:30pm 23.0 19.5 8.7 40 7.7 ENE 17 24 9 13 1009.3 1009.2 0.0
19/08:00pm 24.4 21.7 10.3 41 7.8 E 15 20 8 11 1009.5 1009.4 0.0
19/07:30pm 26.0 23.1 11.0 39 8.5 E 17 24 9 13 1009.8 1009.7 0.0
19/07:00pm 27.6 24.6 10.8 35 9.5 ESE 17 24 9 13 1009.9 1009.8 0.0
19/06:30pm 30.3 26.7 9.8 28 11.6 E 19 26 10 14 1009.7 1009.6 0.0
19/06:00pm 31.3 28.4 9.5 26 12.3 E 15 20 8 11 1009.8 1009.7 0.0
19/05:30pm 31.5 27.9 9.7 26 12.4 E 19 26 10 14 1009.8 1009.7 0.0
19/05:00pm 31.5 29.0 9.7 26 12.4 ENE 13 20 7 11 1009.9 1009.8 0.0
19/04:30pm 31.4 27.7 9.6 26 12.4 ENE 19 26 10 14 1010.0 1009.9 0.0
19/04:00pm 31.2 28.0 10.0 27 12.1 ENE 17 26 9 14 1010.3 1010.2 0.0
19/03:30pm 31.6 28.1 10.9 28 12.0 ENE 20 32 11 17 1010.6 1010.5 0.0
19/03:00pm 30.9 27.7 11.3 30 11.4 ENE 19 30 10 16 1011.2 1011.0 0.0
19/02:30pm 31.3 29.2 11.1 29 11.7 ENE 13 24 7 13 1011.8 1011.6 0.0
19/02:00pm 30.6 27.9 10.5 29 11.5 ENE 15 26 8 14 1012.2 1012.0 0.0
19/01:30pm 31.0 28.6 11.4 30 11.4 E 15 20 8 11 1012.3 1012.1 0.0
19/01:00pm 28.9 26.6 10.6 32 10.4 E 13 24 7 13 1012.6 1012.4 0.0
19/12:30pm 28.2 26.5 11.3 35 9.7 ENE 11 22 6 12 1013.0 1012.8 0.0
19/12:00pm 28.2 25.6 12.1 37 9.4 SSE 17 26 9 14 1013.2 1013.0 0.0
19/11:30am 26.1 24.0 11.1 39 8.5 ESE 13 20 7 11 1013.6 1013.4 0.0
19/11:00am 25.1 22.8 11.6 42 7.7 SE 15 20 8 11 1013.7 1013.5 0.0
19/10:30am 24.6 22.0 11.9 45 7.2 SSE 17 20 9 11 1013.9 1013.7 0.0
19/10:00am 22.2 19.1 11.6 51 5.9 SSE 19 24 10 13 1014.1 1013.9 0.0
19/09:30am 21.6 19.2 12.7 57 5.1 S 17 22 9 12 1014.3 1014.1 0.0
19/09:00am 19.5 17.4 12.5 64 3.9 SSE 15 20 8 11 1014.1 1013.9 0.0
19/08:30am 17.6 15.7 14.1 80 2.0 SSE 17 20 9 11 1014.0 1013.8 0.0
19/08:00am 15.9 14.8 14.3 90 0.9 SSE 13 19 7 10 1013.7 1013.5 0.0
19/07:30am 14.3 13.6 14.3 100 0.0 S 11 15 6 8 1013.7 1013.5 0.0
19/07:00am 13.2 12.9 13.2 100 0.0 SE 7 9 4 5 1013.7 1013.5 0.0
19/06:30am 11.9 10.8 11.9 100 0.0 S 9 11 5 6 1013.3 1013.1 0.0
19/06:00am 12.6 10.6 12.6 100 0.0 S 15 17 8 9 1013.2 1013.0 0.0
19/05:30am 12.6 11.3 12.6 100 0.0 S 11 13 6 7 1012.8 1012.6 0.0
19/05:00am 12.8 12.0 12.8 100 0.0 SSE 9 11 5 6 1012.7 1012.5 0.0
19/04:30am 13.2 11.7 13.2 100 0.0 SSE 13 15 7 8 1012.7 1012.5 0.0
19/04:00am 13.1 12.0 13.1 100 0.0 SSE 11 15 6 8 1012.7 1012.5 0.0
19/03:30am 12.7 11.8 12.7 100 0.0 S 9 13 5 7 1012.8 1012.6 0.0
19/03:00am 12.4 10.7 12.4 100 0.0 S 13 15 7 8 1012.8 1012.6 0.0
19/02:30am 12.4 10.6 12.1 98 0.2 S 13 15 7 8 1012.9 1012.7 0.0
19/02:00am 12.5 10.5 11.4 93 0.6 SSW 13 17 7 9 1013.0 1012.8 0.0
19/01:30am 12.2 10.2 10.1 87 1.1 S 11 13 6 7 1013.2 1013.0 0.0
19/01:00am 13.0 10.7 10.4 84 1.4 S 13 15 7 8 1013.4 1013.2 0.0
19/12:30am 13.7 11.4 10.3 80 1.8 SSW 13 15 7 8 1013.5 1013.3 0.0
19/12:00am 14.4 12.1 10.6 78 2.0 S 13 13 7 7 1013.6 1013.4 0.0
 
Date/Time
CDT
Temp
°C
App
Temp
°C
Dew
Point
°C
Rel
Hum
%
Delta-T
°C
Wind Press
QNH
hPa
Press
MSL
hPa
Rain since
9am
mm
Dir  Spd
km/h
Gust
km/h
Spd
kts
Gust
kts
18/11:30pm 15.6 14.0 11.6 77 2.2 S 11 15 6 8 1013.5 1013.3 0.0
18/11:00pm 15.5 13.9 10.1 70 2.8 S 9 13 5 7 1013.9 1013.7 0.0
18/10:30pm 15.1 13.1 6.1 55 4.3 S 6 13 3 7 1013.7 1013.5 0.0
18/10:00pm 16.3 14.5 7.0 54 4.6 S 6 9 3 5 1013.6 1013.4 0.0
18/09:30pm 16.8 14.3 6.6 51 5.0 SW 9 11 5 6 1013.5 1013.3 0.0
18/09:00pm 18.8 16.2 7.9 49 5.6 W 11 13 6 7 1013.3 1013.1 0.0
18/08:30pm 20.6 17.1 7.2 42 6.9 W 15 17 8 9 1013.3 1013.1 0.0
18/08:00pm 22.8 18.2 5.7 33 8.6 W 19 26 10 14 1013.3 1013.1 0.0
18/07:30pm 25.8 19.9 1.8 21 11.5 WSW 22 28 12 15 1013.5 1013.3 0.0
18/07:00pm 28.3 21.8 0.1 16 13.4 W 24 32 13 17 1013.1 1012.9 0.0
18/06:30pm 29.9 21.8 -0.5 14 14.4 W 32 37 17 20 1012.8 1012.6 0.0
18/06:00pm 31.3 23.0 -1.5 12 15.4 W 32 43 17 23 1012.8 1012.6 0.0
18/05:30pm 32.0 24.7 0.2 13 15.5 WNW 28 39 15 21 1012.9 1012.7 0.0
18/05:00pm 32.5 24.4 -0.5 12 15.9 W 32 43 17 23 1013.0 1012.8 0.0
18/04:30pm 32.7 24.6 -0.4 12 16.0 WNW 32 46 17 25 1013.3 1013.1 0.0
18/04:00pm 33.4 25.6 -1.0 11 16.6 WNW 30 43 16 23 1013.4 1013.2 0.0
18/03:30pm 33.3 25.1 -1.1 11 16.5 WNW 32 46 17 25 1013.7 1013.5 0.0
18/03:00pm 33.5 25.3 -1.0 11 16.6 WNW 32 48 17 26 1014.1 1013.9 0.0
18/02:30pm 33.1 24.7 -2.6 10 16.7 WNW 32 43 17 23 1014.2 1014.0 0.0
18/02:00pm 33.4 24.1 -2.3 10 16.8 WNW 37 48 20 26 1014.4 1014.2 0.0
18/01:44pm 33.2 24.6 -2.5 10 16.8 WNW 33 46 18 25 1014.3 1014.1 0.0
18/01:32pm 33.7 25.2 -2.1 10 17.0 NW 33 52 18 28 1014.5 1014.3 0.0
18/01:30pm 33.3 24.5 -1.1 11 16.5 NW 35 48 19 26 1014.5 1014.3 0.0
18/01:00pm 33.1 24.7 -2.6 10 16.7 WNW 32 44 17 24 1014.8 1014.6 0.0
18/12:44pm 33.8 26.0 -0.7 11 16.7 WNW 30 48 16 26 1015.0 1014.8 0.0
18/12:30pm 32.7 24.2 -2.9 10 16.5 WNW 32 46 17 25 1014.9 1014.7 0.0
18/12:00pm 33.1 26.4 -1.3 11 16.4 NW 24 35 13 19 1015.2 1015.0 0.0

Other formats

Comma delimited format used in spreadsheet applications
http://www.bom.gov.au/fwo/IDS60801/IDS60801.95663.axf

JavaScript Object Notation format (JSON) in row-major order
http://www.bom.gov.au/fwo/IDS60801/IDS60801.95663.json

Data quality

Most of these data are generated automatically and are frequently updated. Quality checks on data are not normally performed. It is possible for incorrect values to appear. Refer to information at About Latest Weather Observations and please check the disclaimer before using these data.